createdAt,value
2023-01-23T00:02:12.412Z,50.24
2023-01-23T00:05:03.085Z,50.71
2023-01-23T00:07:52.016Z,50.43
2023-01-23T00:10:40.887Z,50.54
2023-01-23T00:13:29.743Z,51.00
2023-01-23T00:19:10.962Z,50.34
2023-01-23T00:22:02.508Z,50.47
2023-01-23T00:24:51.406Z,50.39
2023-01-23T00:27:40.084Z,50.53
2023-01-23T00:30:29.158Z,50.36
2023-01-23T00:33:17.938Z,50.28
2023-01-23T00:36:07.593Z,50.50
2023-01-23T00:38:57.989Z,50.29
2023-01-23T00:41:47.360Z,50.55
2023-01-23T00:44:36.093Z,50.37
2023-01-23T00:47:24.870Z,50.41
2023-01-23T00:50:14.731Z,50.42
2023-01-23T00:53:03.397Z,50.46
2023-01-23T00:55:53.596Z,50.37
2023-01-23T00:58:44.166Z,50.56
2023-01-23T01:01:33.995Z,50.61
2023-01-23T01:04:22.837Z,50.70
2023-01-23T01:07:11.526Z,50.69
2023-01-23T01:10:00.166Z,50.66
2023-01-23T01:12:51.064Z,50.67
2023-01-23T01:15:40.420Z,50.76
2023-01-23T01:18:29.457Z,50.83
2023-01-23T01:21:19.802Z,50.97
2023-01-23T01:24:08.963Z,50.81
2023-01-23T01:26:57.681Z,50.67
2023-01-23T01:29:47.720Z,51.15
2023-01-23T01:32:38.881Z,50.58
2023-01-23T01:35:27.646Z,50.59
2023-01-23T01:38:16.409Z,50.94
2023-01-23T01:41:05.698Z,50.97
2023-01-23T01:43:57.125Z,50.83
2023-01-23T01:46:48.967Z,50.82
2023-01-23T01:49:37.714Z,51.01
2023-01-23T01:52:27.041Z,50.91
2023-01-23T01:55:15.868Z,51.14
2023-01-23T01:58:04.664Z,50.98
2023-01-23T02:00:53.386Z,51.40
2023-01-23T02:03:45.259Z,51.23
2023-01-23T02:06:34.386Z,51.06
2023-01-23T02:09:27.297Z,51.13
2023-01-23T02:12:15.935Z,51.11
2023-01-23T02:15:05.707Z,51.39
2023-01-23T02:17:54.959Z,51.41
2023-01-23T02:20:45.122Z,51.43
2023-01-23T02:23:40.325Z,51.45
2023-01-23T02:26:33.063Z,50.95
2023-01-23T02:29:21.861Z,51.23
2023-01-23T02:32:10.737Z,51.10
2023-01-23T02:35:02.590Z,50.99
2023-01-23T02:37:54.181Z,51.20
2023-01-23T02:40:44.290Z,51.02
2023-01-23T02:43:37.248Z,51.17
2023-01-23T02:46:26.388Z,51.12
2023-01-23T02:49:15.609Z,51.23
2023-01-23T02:52:04.505Z,50.86
2023-01-23T02:54:53.140Z,50.93
2023-01-23T02:57:41.934Z,51.14
2023-01-23T03:00:31.109Z,51.13
2023-01-23T03:03:19.995Z,50.47
2023-01-23T03:06:08.967Z,50.90
2023-01-23T03:08:59.877Z,50.72
2023-01-23T03:11:48.983Z,50.74
2023-01-23T03:14:39.891Z,50.78
2023-01-23T03:17:30.217Z,50.99
2023-01-23T03:20:20.502Z,50.99
2023-01-23T03:23:09.497Z,50.97
2023-01-23T03:25:59.763Z,51.02
2023-01-23T03:29:06.320Z,51.53
2023-01-23T03:31:55.035Z,51.07
2023-01-23T03:34:45.340Z,51.24
2023-01-23T03:37:34.028Z,51.08
2023-01-23T03:40:42.416Z,51.29
2023-01-23T03:43:32.974Z,51.65
2023-01-23T03:46:21.997Z,51.32
2023-01-23T03:49:10.769Z,51.08
2023-01-23T03:52:01.256Z,50.81
2023-01-23T03:54:50.017Z,51.17
2023-01-23T03:57:38.720Z,51.17
2023-01-23T04:00:27.867Z,51.23
2023-01-23T04:03:16.652Z,51.11
2023-01-23T04:06:05.744Z,51.15
2023-01-23T04:08:57.028Z,51.05
2023-01-23T04:11:45.749Z,50.94
2023-01-23T04:14:37.473Z,50.73
2023-01-23T04:17:26.359Z,51.01
2023-01-23T04:20:15.846Z,51.01
2023-01-23T04:23:04.671Z,50.88
2023-01-23T04:25:55.066Z,51.15
2023-01-23T04:28:43.804Z,51.06
2023-01-23T04:31:36.015Z,51.35
2023-01-23T04:34:24.803Z,51.21
2023-01-23T04:37:13.583Z,51.38
2023-01-23T04:40:02.299Z,51.14
2023-01-23T04:42:52.462Z,51.41
2023-01-23T04:45:41.285Z,51.29
2023-01-23T04:48:30.055Z,51.36
2023-01-23T04:51:18.803Z,51.22
2023-01-23T04:54:07.697Z,51.43
2023-01-23T04:56:56.442Z,50.98
2023-01-23T04:59:46.565Z,51.10
2023-01-23T05:02:35.735Z,51.20
2023-01-23T05:05:24.758Z,51.25
2023-01-23T05:08:13.858Z,51.57
2023-01-23T05:11:02.888Z,51.22
2023-01-23T05:13:51.740Z,50.14
2023-01-23T05:16:41.823Z,49.73
2023-01-23T05:19:30.551Z,49.15
2023-01-23T05:25:09.592Z,48.57
2023-01-23T05:27:58.483Z,47.92
2023-01-23T05:30:47.577Z,48.05
2023-01-23T05:33:37.779Z,47.64
2023-01-23T05:36:26.704Z,47.86
2023-01-23T05:39:15.560Z,47.15
2023-01-23T05:42:04.306Z,48.08
2023-01-23T05:44:53.357Z,48.88
2023-01-23T05:47:42.307Z,49.03
2023-01-23T05:50:34.413Z,49.11
2023-01-23T05:53:23.315Z,49.17
2023-01-23T05:56:14.449Z,49.68
2023-01-23T05:59:03.792Z,49.32
2023-01-23T06:01:52.562Z,49.81
2023-01-23T06:04:41.450Z,49.92
2023-01-23T06:07:31.746Z,50.03
2023-01-23T06:10:20.909Z,50.27
2023-01-23T06:13:09.830Z,50.35
2023-01-23T06:15:58.672Z,50.30
2023-01-23T06:18:47.401Z,50.71
2023-01-23T06:21:36.125Z,50.57
2023-01-23T06:24:26.562Z,50.66
2023-01-23T06:27:15.418Z,50.15
2023-01-23T06:30:04.129Z,50.41
2023-01-23T06:32:52.807Z,50.41
2023-01-23T06:35:41.597Z,50.43
2023-01-23T06:38:30.865Z,50.46
2023-01-23T06:41:21.086Z,50.24
2023-01-23T06:44:09.954Z,50.61
2023-01-23T06:46:58.769Z,50.48
2023-01-23T06:49:47.657Z,50.38
2023-01-23T06:52:36.401Z,50.45
2023-01-23T06:55:25.333Z,50.46
2023-01-23T06:58:15.447Z,50.44
2023-01-23T07:01:10.806Z,50.18
2023-01-23T07:03:59.472Z,50.90
2023-01-23T07:06:48.403Z,50.75
2023-01-23T07:09:37.021Z,50.94
2023-01-23T07:12:26.318Z,50.75
2023-01-23T07:15:16.492Z,50.91
2023-01-23T07:18:05.748Z,51.00
2023-01-23T07:20:54.412Z,50.77
2023-01-23T07:23:43.189Z,50.75
2023-01-23T07:26:31.930Z,50.60
2023-01-23T07:29:20.775Z,50.69
2023-01-23T07:32:11.375Z,50.91
2023-01-23T07:35:00.291Z,50.63
2023-01-23T07:37:49.190Z,50.87
2023-01-23T07:40:39.110Z,51.10
2023-01-23T07:43:28.064Z,51.16
2023-01-23T07:46:16.913Z,50.85
2023-01-23T07:49:07.495Z,51.08
2023-01-23T07:51:56.303Z,51.24
2023-01-23T07:54:45.347Z,50.81
2023-01-23T07:57:34.372Z,50.68
2023-01-23T08:00:28.448Z,50.88
2023-01-23T08:03:18.744Z,50.90
2023-01-23T08:06:09.999Z,51.25
2023-01-23T08:08:58.668Z,50.92
2023-01-23T08:11:47.402Z,51.13
2023-01-23T08:14:36.183Z,51.03
2023-01-23T08:17:24.892Z,50.92
2023-01-23T08:20:14.607Z,51.09
2023-01-23T08:23:04.719Z,51.19
2023-01-23T08:25:55.265Z,51.17
2023-01-23T08:28:44.681Z,51.04
2023-01-23T08:31:33.671Z,50.94
2023-01-23T08:34:24.055Z,51.06
2023-01-23T08:37:12.783Z,50.93
2023-01-23T08:40:02.933Z,51.12
2023-01-23T08:42:51.786Z,50.87
2023-01-23T08:45:40.459Z,51.01
2023-01-23T08:48:34.188Z,50.85
2023-01-23T08:51:23.283Z,51.38
2023-01-23T08:54:11.969Z,51.23
2023-01-23T08:57:02.868Z,51.31
2023-01-23T08:59:51.528Z,50.97
2023-01-23T09:02:40.244Z,51.23
2023-01-23T09:05:29.725Z,51.24
2023-01-23T09:08:18.626Z,51.08
2023-01-23T09:11:10.273Z,51.26
2023-01-23T09:14:00.423Z,51.37
2023-01-23T09:16:49.154Z,51.27
2023-01-23T09:19:37.963Z,51.39
2023-01-23T09:22:26.775Z,51.40
2023-01-23T09:25:15.746Z,51.39
2023-01-23T09:28:05.093Z,51.17
2023-01-23T09:30:55.294Z,51.40
2023-01-23T09:33:44.295Z,51.50
2023-01-23T09:36:42.423Z,51.13
2023-01-23T09:39:31.773Z,51.03
2023-01-23T09:42:23.216Z,51.06
2023-01-23T09:45:14.290Z,50.78
2023-01-23T09:48:17.913Z,50.86
2023-01-23T09:51:14.350Z,50.81
2023-01-23T09:54:17.994Z,50.90
2023-01-23T09:57:14.605Z,51.31
2023-01-23T10:00:07.952Z,51.01
2023-01-23T10:02:57.253Z,50.73
2023-01-23T10:05:54.513Z,51.44
2023-01-23T10:08:53.691Z,50.88
2023-01-23T10:11:50.124Z,51.05
2023-01-23T10:14:53.956Z,51.10
2023-01-23T10:17:46.903Z,50.96
2023-01-23T10:20:51.218Z,51.10
2023-01-23T10:23:48.420Z,50.86
2023-01-23T10:26:41.860Z,50.78
2023-01-23T10:29:32.333Z,51.00
2023-01-23T10:32:26.692Z,50.98
2023-01-23T10:35:19.464Z,51.11
2023-01-23T10:38:16.879Z,50.89
2023-01-23T10:41:21.177Z,51.10
2023-01-23T10:44:17.212Z,51.13
2023-01-23T10:47:17.371Z,51.22
2023-01-23T10:50:07.558Z,51.11
2023-01-23T10:53:08.011Z,51.01
2023-01-23T10:56:00.820Z,50.93
2023-01-23T10:58:49.957Z,51.19
2023-01-23T11:01:42.195Z,51.02
2023-01-23T11:04:33.514Z,50.86
2023-01-23T11:07:23.899Z,51.12
2023-01-23T11:10:20.265Z,51.28
2023-01-23T11:13:27.431Z,51.25
2023-01-23T11:16:17.112Z,51.17
2023-01-23T11:19:14.134Z,51.51
2023-01-23T11:22:03.979Z,50.98
2023-01-23T11:24:52.744Z,51.00
2023-01-23T11:27:41.345Z,51.23
2023-01-23T11:30:43.598Z,50.98
2023-01-23T11:33:41.063Z,51.04
2023-01-23T11:36:46.794Z,50.99
2023-01-23T11:39:42.464Z,51.15
2023-01-23T11:42:31.155Z,50.79
2023-01-23T11:45:33.564Z,51.30
2023-01-23T11:48:36.100Z,51.08
2023-01-23T11:51:29.600Z,51.24
2023-01-23T11:54:37.994Z,51.00
2023-01-23T11:57:35.543Z,50.83
2023-01-23T12:00:31.288Z,51.08
2023-01-23T12:03:55.865Z,50.52
2023-01-23T12:06:58.206Z,51.20
2023-01-23T12:09:53.969Z,50.81
2023-01-23T12:12:53.337Z,51.01
2023-01-23T12:15:46.383Z,51.09
2023-01-23T12:18:40.536Z,51.18
2023-01-23T12:21:35.164Z,50.79
2023-01-23T12:24:36.970Z,50.66
2023-01-23T12:27:30.174Z,50.66
2023-01-23T12:30:42.446Z,50.61
2023-01-23T12:33:43.707Z,50.79
2023-01-23T12:37:08.178Z,50.98
2023-01-23T12:40:10.031Z,51.03
2023-01-23T12:43:02.730Z,51.07
2023-01-23T12:45:54.990Z,50.99
2023-01-23T12:48:47.257Z,51.29
2023-01-23T12:51:39.413Z,51.33
2023-01-23T12:54:34.982Z,51.29
2023-01-23T12:57:52.247Z,51.02
2023-01-23T13:01:07.395Z,51.37
2023-01-23T13:04:12.918Z,51.37
2023-01-23T13:07:10.413Z,51.33
2023-01-23T13:10:47.525Z,51.25
2023-01-23T13:13:37.948Z,50.81
2023-01-23T13:16:30.019Z,50.91
2023-01-23T13:19:43.323Z,51.37
2023-01-23T13:22:33.912Z,51.06
2023-01-23T13:25:22.742Z,50.67
2023-01-23T13:28:44.031Z,50.86
2023-01-23T13:31:47.078Z,50.60
2023-01-23T13:34:40.255Z,50.26
2023-01-23T13:37:51.993Z,49.20
2023-01-23T13:41:03.548Z,49.31
2023-01-23T13:43:55.807Z,50.05
2023-01-23T14:25:40.047Z,48.50
2023-01-23T14:28:29.183Z,47.58
2023-01-23T14:31:24.343Z,47.48
2023-01-23T14:34:18.818Z,47.73
2023-01-23T14:37:12.721Z,47.26
2023-01-23T14:40:11.731Z,46.68
2023-01-23T14:43:03.548Z,46.70
2023-01-23T14:46:00.890Z,46.32
2023-01-23T14:48:53.313Z,46.52
2023-01-23T14:51:42.228Z,45.92
2023-01-23T14:54:34.482Z,45.87
2023-01-23T14:57:24.159Z,45.94
2023-01-23T15:00:19.213Z,46.20
2023-01-23T15:05:59.538Z,45.83
2023-01-23T15:08:49.129Z,46.00
2023-01-23T15:11:39.285Z,46.10
2023-01-23T15:14:30.551Z,45.58
2023-01-23T15:17:21.380Z,45.62
2023-01-23T15:20:31.983Z,45.55
2023-01-23T15:23:31.508Z,45.43
2023-01-23T15:26:34.213Z,45.31
2023-01-23T15:29:24.706Z,44.99
2023-01-23T15:32:26.980Z,45.00
2023-01-23T15:35:18.283Z,44.56
2023-01-23T15:38:09.586Z,44.33
2023-01-23T15:40:59.380Z,44.18
2023-01-23T15:43:48.070Z,43.71
2023-01-23T15:46:38.168Z,43.83
2023-01-23T15:49:26.942Z,43.91
2023-01-23T15:52:20.910Z,43.71
2023-01-23T15:55:12.344Z,43.79
2023-01-23T15:58:02.449Z,43.90
2023-01-23T16:00:51.768Z,43.44
2023-01-23T16:03:42.036Z,43.16
2023-01-23T16:06:30.807Z,42.99
2023-01-23T16:09:25.369Z,43.26
2023-01-23T16:12:16.276Z,42.54
2023-01-23T16:15:08.143Z,42.73
2023-01-23T16:17:57.392Z,42.35
2023-01-23T16:20:47.572Z,41.97
2023-01-23T16:23:47.278Z,42.28
2023-01-23T16:26:43.812Z,42.39
2023-01-23T16:29:34.033Z,43.40
2023-01-23T16:32:23.138Z,43.54
2023-01-23T16:35:13.110Z,42.77
2023-01-23T16:38:03.730Z,43.08
2023-01-23T16:40:53.640Z,43.69
2023-01-23T16:43:42.411Z,43.46
2023-01-23T16:46:31.274Z,44.64
2023-01-23T16:49:20.184Z,45.07
2023-01-23T16:52:08.923Z,45.49
2023-01-23T16:54:59.209Z,45.11
2023-01-23T16:57:48.610Z,45.35
2023-01-23T17:00:37.526Z,45.50
2023-01-23T17:03:29.112Z,46.05
2023-01-23T17:06:18.503Z,46.15
2023-01-23T17:09:07.188Z,46.03
2023-01-23T17:11:58.153Z,45.77
2023-01-23T17:14:48.483Z,46.42
2023-01-23T17:17:37.557Z,46.44
2023-01-23T17:20:28.562Z,46.20
2023-01-23T17:23:17.569Z,46.51
2023-01-23T17:26:06.586Z,46.55
2023-01-23T17:28:56.620Z,46.72
2023-01-23T17:31:45.625Z,46.91
2023-01-23T17:34:49.004Z,47.14
2023-01-23T17:37:38.794Z,47.17
2023-01-23T17:40:28.292Z,47.19
2023-01-23T17:43:18.310Z,47.19
2023-01-23T17:46:08.700Z,47.69
2023-01-23T17:48:58.174Z,47.59
2023-01-23T17:51:46.982Z,47.69
2023-01-23T17:54:37.492Z,47.83
2023-01-23T17:57:26.274Z,47.38
2023-01-23T18:00:18.851Z,47.55
2023-01-23T18:03:10.732Z,47.46
2023-01-23T18:05:59.401Z,47.83
2023-01-23T18:08:48.282Z,47.93
2023-01-23T18:11:37.909Z,47.78
2023-01-23T18:14:33.117Z,48.08
2023-01-23T18:17:29.200Z,47.98
2023-01-23T18:20:21.308Z,47.92
2023-01-23T18:23:13.350Z,48.05
2023-01-23T18:26:11.097Z,48.00
2023-01-23T18:29:05.320Z,48.10
2023-01-23T18:32:10.023Z,48.07
2023-01-23T18:35:03.366Z,47.75
2023-01-23T18:37:57.891Z,48.28
2023-01-23T18:41:00.158Z,47.98
2023-01-23T18:43:52.249Z,48.34
2023-01-23T18:46:41.333Z,48.29
2023-01-23T18:49:33.014Z,48.04
2023-01-23T18:52:25.005Z,48.34
2023-01-23T18:55:25.750Z,48.45
2023-01-23T18:58:30.614Z,48.22
2023-01-23T19:01:24.364Z,48.44
2023-01-23T19:04:15.399Z,48.20
2023-01-23T19:07:04.665Z,48.64
2023-01-23T19:09:53.765Z,48.40
2023-01-23T19:12:48.460Z,48.15
2023-01-23T19:15:42.623Z,48.62
2023-01-23T19:18:43.492Z,48.84
2023-01-23T19:21:33.362Z,48.37
2023-01-23T19:24:22.252Z,48.37
2023-01-23T19:27:17.414Z,48.38
2023-01-23T19:30:08.691Z,48.07
2023-01-23T19:32:57.287Z,48.05
2023-01-23T19:35:46.294Z,48.38
2023-01-23T19:38:34.909Z,48.50
2023-01-23T19:41:24.964Z,48.52
2023-01-23T19:44:14.509Z,48.52
2023-01-23T19:47:06.757Z,48.30
2023-01-23T19:49:55.455Z,48.54
2023-01-23T19:52:45.348Z,48.68
2023-01-23T19:55:35.845Z,48.27
2023-01-23T19:58:24.905Z,48.18
2023-01-23T20:01:23.860Z,48.60
2023-01-23T20:04:17.021Z,48.33
2023-01-23T20:07:05.747Z,48.74
2023-01-23T20:09:54.420Z,48.81
2023-01-23T20:12:44.364Z,48.69
2023-01-23T20:15:33.857Z,48.53
2023-01-23T20:18:23.183Z,48.52
2023-01-23T20:21:13.343Z,48.55
2023-01-23T20:24:02.088Z,48.84
2023-01-23T20:26:50.842Z,48.26
2023-01-23T20:29:39.832Z,48.02
2023-01-23T20:32:28.902Z,47.83
2023-01-23T20:35:17.634Z,48.05
2023-01-23T20:38:10.714Z,47.65
2023-01-23T20:41:04.837Z,47.62
2023-01-23T20:43:56.476Z,47.34
2023-01-23T20:46:45.590Z,47.65
2023-01-23T20:49:34.329Z,47.31
2023-01-23T20:52:43.518Z,47.72
2023-01-23T20:55:33.544Z,47.62
2023-01-23T20:58:42.204Z,48.12
2023-01-23T21:01:53.613Z,47.76
2023-01-23T21:04:45.511Z,47.99
2023-01-23T21:07:34.509Z,48.42
2023-01-23T21:10:24.328Z,47.95
2023-01-23T21:13:15.730Z,47.94
2023-01-23T21:16:09.097Z,48.30
2023-01-23T21:18:57.972Z,43.06
2023-01-23T21:21:46.947Z,39.58
2023-01-23T21:24:36.498Z,42.24
2023-01-23T21:27:26.097Z,44.47
2023-01-23T21:30:18.191Z,44.93
2023-01-23T21:33:07.206Z,45.46
2023-01-23T21:35:56.512Z,46.02
2023-01-23T21:38:45.604Z,46.24
2023-01-23T21:41:34.465Z,46.81
2023-01-23T21:44:23.171Z,46.84
2023-01-23T21:47:15.368Z,46.99
2023-01-23T21:50:04.291Z,47.16
2023-01-23T21:52:53.195Z,47.77
2023-01-23T21:55:41.905Z,47.53
2023-01-23T21:58:30.776Z,47.78
2023-01-23T22:01:33.725Z,47.72
2023-01-23T22:04:24.192Z,47.76
2023-01-23T22:07:13.019Z,47.83
2023-01-23T22:10:01.970Z,47.87
2023-01-23T22:12:53.911Z,48.02
2023-01-23T22:15:42.699Z,47.85
2023-01-23T22:18:31.691Z,47.99
2023-01-23T22:21:21.929Z,47.75
2023-01-23T22:24:10.767Z,47.89
2023-01-23T22:26:59.839Z,48.35
2023-01-23T22:29:48.483Z,48.25
2023-01-23T22:32:37.075Z,48.56
2023-01-23T22:35:25.650Z,48.20
2023-01-23T22:38:16.781Z,48.64
2023-01-23T22:41:07.151Z,48.18
2023-01-23T22:43:55.831Z,48.52
2023-01-23T22:46:44.529Z,48.60
2023-01-23T22:49:33.282Z,48.75
2023-01-23T22:52:22.097Z,48.50
2023-01-23T22:55:12.857Z,48.58
2023-01-23T22:58:01.608Z,48.77
2023-01-23T23:00:53.137Z,48.94
2023-01-23T23:03:42.127Z,49.04
2023-01-23T23:06:33.605Z,49.18
2023-01-23T23:09:22.370Z,49.46
2023-01-23T23:12:13.679Z,49.00
2023-01-23T23:15:02.826Z,49.35
2023-01-23T23:17:51.557Z,49.16
2023-01-23T23:20:40.623Z,49.30
2023-01-23T23:23:29.781Z,48.67
2023-01-23T23:26:18.675Z,49.19
2023-01-23T23:29:09.257Z,48.95
2023-01-23T23:31:58.079Z,49.08
2023-01-23T23:34:47.168Z,49.00
2023-01-23T23:37:36.123Z,48.99
2023-01-23T23:40:24.720Z,49.22
2023-01-23T23:43:13.302Z,49.28
2023-01-23T23:46:05.348Z,49.45
2023-01-23T23:48:54.047Z,49.23
2023-01-23T23:51:46.055Z,49.08
2023-01-23T23:54:34.704Z,49.18
2023-01-23T23:57:23.372Z,48.91
